Time;durP1;ratioP1;P1;durP2;ratioP2;P2;SDS_P1;SDS_P2;PMS_P1;PMS_P2;Temp;Humidity;BMP_temperature;BMP_pressure;BME280_temperature;BME280_humidity;BME280_pressure;Samples;Min_cycle;Max_cycle;Signal;HPM_P1;HPM_P2
2021/10/27 00:02:06;;;;;;;3.80;3.20;;;;;;;5.71;94.48;96457.13;5035249;28;20182;-79
2021/10/27 00:04:31;;;;;;;5.33;3.10;;;;;;;5.71;94.65;96451.13;5051910;28;20177;-79
2021/10/27 00:06:57;;;;;;;4.73;3.07;;;;;;;5.70;94.66;96452.88;5051856;28;20753;-79
2021/10/27 00:09:22;;;;;;;4.57;2.90;;;;;;;5.78;94.37;96455.81;5052412;28;20216;-79
2021/10/27 00:11:47;;;;;;;7.33;3.53;;;;;;;5.74;94.21;96449.19;5035754;28;20181;-79
2021/10/27 00:14:13;;;;;;;5.67;3.20;;;;;;;5.74;94.56;96454.34;5032859;28;20670;-79
2021/10/27 00:16:38;;;;;;;4.53;3.20;;;;;;;5.75;94.41;96450.84;5033383;28;20166;-79
2021/10/27 00:19:03;;;;;;;6.07;3.67;;;;;;;5.74;94.83;96456.91;5051238;28;20228;-79
2021/10/27 00:21:29;;;;;;;8.40;3.53;;;;;;;5.75;94.62;96461.16;5032423;28;20197;-79
2021/10/27 00:23:55;;;;;;;5.60;3.17;;;;;;;5.74;94.75;96464.63;5049531;28;20174;-79
2021/10/27 00:26:20;;;;;;;4.33;3.00;;;;;;;5.73;94.55;96468.16;5050269;28;20202;-79
2021/10/27 00:28:46;;;;;;;5.93;2.90;;;;;;;5.69;94.28;96464.13;5033113;28;20610;-79
2021/10/27 00:31:11;;;;;;;5.17;2.97;;;;;;;5.62;94.59;96455.09;5033349;28;20189;-79
2021/10/27 00:33:37;;;;;;;3.70;2.97;;;;;;;5.62;94.32;96458.50;5060324;28;20177;-79
2021/10/27 00:36:04;;;;;;;4.43;2.93;;;;;;;5.54;93.68;96452.19;5049765;28;20185;-79
2021/10/27 00:38:29;;;;;;;6.33;2.83;;;;;;;5.52;94.25;96456.59;5065002;28;20209;-79
2021/10/27 00:40:54;;;;;;;4.67;2.43;;;;;;;5.48;94.49;96444.81;5049771;28;20540;-79
2021/10/27 00:43:19;;;;;;;6.07;2.87;;;;;;;5.56;94.41;96450.31;5049966;28;20204;-79
2021/10/27 00:45:45;;;;;;;4.23;3.07;;;;;;;5.57;94.41;96457.16;5051140;28;20210;-79
2021/10/27 00:48:10;;;;;;;4.77;2.90;;;;;;;5.65;95.30;96457.47;5049613;28;20259;-79
2021/10/27 00:50:35;;;;;;;6.87;2.70;;;;;;;5.80;94.69;96458.28;5047803;28;20182;-79
2021/10/27 00:53:01;;;;;;;4.27;3.00;;;;;;;5.81;94.20;96452.22;5036822;28;20181;-79
2021/10/27 00:55:26;;;;;;;3.90;2.47;;;;;;;5.76;94.07;96457.66;5036075;28;20269;-79
2021/10/27 00:57:53;;;;;;;5.17;2.70;;;;;;;5.73;93.82;96451.84;5036642;28;20204;-79
2021/10/27 01:00:18;;;;;;;6.80;2.57;;;;;;;5.67;94.05;96459.06;5053404;28;20204;-79
2021/10/27 01:02:44;;;;;;;4.30;1.90;;;;;;;5.72;94.13;96460.50;5053389;28;20661;-79
2021/10/27 01:05:09;;;;;;;4.13;2.20;;;;;;;5.66;94.25;96464.31;5052486;28;20268;-79
2021/10/27 01:07:35;;;;;;;4.30;2.53;;;;;;;5.58;93.85;96458.81;5036542;28;20270;-79
2021/10/27 01:10:01;;;;;;;2.93;2.20;;;;;;;5.54;93.41;96458.16;5053040;28;20657;-79
2021/10/27 01:12:26;;;;;;;3.93;2.27;;;;;;;5.52;94.04;96460.00;5053048;28;20209;-79
2021/10/27 01:14:51;;;;;;;4.17;2.40;;;;;;;5.54;94.09;96455.56;5035780;28;20649;-79
2021/10/27 01:17:18;;;;;;;4.40;1.97;;;;;;;5.62;94.30;96460.25;5036505;28;20231;-79
2021/10/27 01:19:49;;;;;;;5.43;2.50;;;;;;;5.63;94.19;96454.19;5052774;28;20556;-79
2021/10/27 01:22:16;;;;;;;2.87;2.00;;;;;;;5.59;93.90;96455.31;5035219;28;20189;-79
2021/10/27 01:24:41;;;;;;;5.27;2.63;;;;;;;5.58;93.84;96451.91;5035273;28;20190;-79
2021/10/27 01:27:07;;;;;;;4.67;2.20;;;;;;;5.60;93.66;96456.97;5035938;28;20271;-79
2021/10/27 01:29:33;;;;;;;6.87;2.77;;;;;;;5.61;93.74;96454.28;5052925;28;20204;-79
2021/10/27 01:31:59;;;;;;;2.73;1.87;;;;;;;5.54;93.88;96459.91;5052846;28;20594;-79
2021/10/27 01:34:24;;;;;;;4.20;2.17;;;;;;;5.60;94.06;96451.81;5051913;28;20273;-79
2021/10/27 01:36:49;;;;;;;3.77;1.97;;;;;;;5.56;93.86;96453.72;5036088;28;20178;-79
2021/10/27 01:39:15;;;;;;;3.43;2.30;;;;;;;5.57;93.98;96457.16;5052362;28;20204;-79
2021/10/27 01:41:40;;;;;;;5.00;2.40;;;;;;;5.54;93.77;96452.19;5052511;28;20231;-79
2021/10/27 01:44:05;;;;;;;2.80;2.30;;;;;;;5.50;93.74;96450.72;5035195;28;20556;-79
2021/10/27 01:46:33;;;;;;;4.03;1.80;;;;;;;5.43;93.72;96449.44;5035900;28;20524;-79
2021/10/27 01:49:00;;;;;;;3.80;2.60;;;;;;;5.40;93.64;96456.44;5035685;28;20292;-79
2021/10/27 01:51:26;;;;;;;2.40;2.10;;;;;;;5.44;93.42;96451.09;5035853;28;20186;-79
2021/10/27 01:53:52;;;;;;;2.77;1.90;;;;;;;5.33;93.73;96447.44;5051562;28;20658;-79
2021/10/27 01:56:18;;;;;;;3.17;1.97;;;;;;;5.30;93.54;96444.19;5035880;28;20174;-79
2021/10/27 01:58:43;;;;;;;5.30;2.37;;;;;;;5.24;93.43;96455.72;5035603;28;20574;-79
2021/10/27 02:01:08;;;;;;;4.13;1.80;;;;;;;5.16;93.93;96452.78;5053347;28;20240;-79
2021/10/27 02:03:34;;;;;;;2.87;2.00;;;;;;;5.13;94.06;96449.56;5051612;28;20189;-80
2021/10/27 02:05:59;;;;;;;3.07;2.00;;;;;;;5.07;93.77;96448.19;5052224;28;20209;-79
2021/10/27 02:08:24;;;;;;;5.23;2.10;;;;;;;5.00;93.50;96447.72;5035172;28;20198;-79
2021/10/27 02:10:49;;;;;;;2.80;2.00;;;;;;;5.00;93.67;96452.03;5053307;28;20185;-79
2021/10/27 02:13:15;;;;;;;5.07;2.40;;;;;;;4.96;94.00;96450.56;5035145;28;20182;-79
2021/10/27 02:15:42;;;;;;;3.67;1.93;;;;;;;4.95;94.41;96448.91;5051075;28;20664;-79
2021/10/27 02:18:07;;;;;;;5.43;2.23;;;;;;;4.94;94.38;96450.63;5052981;28;20284;-79
2021/10/27 02:20:32;;;;;;;4.73;2.30;;;;;;;4.94;94.20;96449.81;5034206;28;20205;-79
2021/10/27 02:22:58;;;;;;;3.77;1.90;;;;;;;4.93;93.96;96450.72;5034741;28;20247;-79
2021/10/27 02:25:23;;;;;;;3.80;2.10;;;;;;;4.88;94.19;96442.47;5033979;28;20214;-79
2021/10/27 02:27:49;;;;;;;3.20;1.87;;;;;;;4.89;94.34;96437.22;5051618;28;20202;-79
2021/10/27 02:30:14;;;;;;;4.13;1.80;;;;;;;4.92;94.26;96442.19;5034800;28;20189;-79
2021/10/27 02:32:39;;;;;;;3.27;1.90;;;;;;;4.92;94.17;96443.94;5052783;28;20178;-79
2021/10/27 02:35:05;;;;;;;2.73;1.77;;;;;;;4.98;94.04;96443.56;5034034;28;20230;-79
2021/10/27 02:37:30;;;;;;;3.33;2.20;;;;;;;4.90;93.70;96435.47;5051535;28;20221;-79
2021/10/27 02:39:56;;;;;;;4.97;1.90;;;;;;;4.89;94.03;96439.81;5051279;28;20225;-79
2021/10/27 02:42:21;;;;;;;4.57;2.10;;;;;;;4.92;93.96;96439.63;5034556;28;20699;-79
2021/10/27 02:44:46;;;;;;;2.80;2.50;;;;;;;4.95;94.37;96441.19;5051716;28;20177;-79
2021/10/27 02:47:12;;;;;;;6.20;2.10;;;;;;;4.90;94.03;96450.94;5034415;28;20701;-79
2021/10/27 02:49:37;;;;;;;3.00;1.90;;;;;;;4.88;94.14;96445.06;5033984;28;20205;-79
2021/10/27 02:52:03;;;;;;;3.53;2.13;;;;;;;4.85;94.51;96443.47;5034329;28;20646;-79
2021/10/27 02:54:28;;;;;;;4.17;1.90;;;;;;;4.86;94.61;96439.13;5033766;28;20299;-79
2021/10/27 02:56:53;;;;;;;3.10;2.07;;;;;;;4.95;94.76;96438.63;5050883;28;20174;-79
2021/10/27 02:59:18;;;;;;;3.97;2.23;;;;;;;4.96;94.55;96435.94;5052077;28;20197;-79
2021/10/27 03:01:44;;;;;;;2.83;1.90;;;;;;;4.96;94.44;96442.84;5050686;28;20178;-79
2021/10/27 03:04:09;;;;;;;4.37;2.00;;;;;;;4.96;94.89;96445.44;5049856;28;20275;-79
2021/10/27 03:06:34;;;;;;;3.10;2.00;;;;;;;4.97;94.42;96449.66;5050797;28;20267;-79
2021/10/27 03:09:00;;;;;;;3.80;2.17;;;;;;;4.98;94.80;96446.97;5033748;28;20299;-79
2021/10/27 03:11:25;;;;;;;2.70;1.90;;;;;;;5.06;95.46;96449.09;5033858;28;20185;-79
2021/10/27 03:13:50;;;;;;;10.70;2.17;;;;;;;5.07;95.03;96448.19;5051178;28;20612;-79
2021/10/27 03:16:16;;;;;;;3.00;1.80;;;;;;;5.13;95.19;96447.00;5051802;28;20197;-79
2021/10/27 03:18:41;;;;;;;3.53;1.90;;;;;;;5.04;94.81;96445.78;5050694;28;20200;-79
2021/10/27 03:21:07;;;;;;;3.43;1.90;;;;;;;5.03;94.62;96450.09;5049721;28;20189;-79
2021/10/27 03:23:32;;;;;;;3.77;2.20;;;;;;;5.00;94.70;96446.88;5033245;28;20174;-79
2021/10/27 03:25:57;;;;;;;4.50;2.47;;;;;;;4.95;95.01;96443.78;5033613;28;20236;-79
2021/10/27 03:28:23;;;;;;;4.57;2.43;;;;;;;4.94;94.92;96444.66;5033766;28;20201;-79
2021/10/27 03:30:48;;;;;;;3.43;2.33;;;;;;;4.92;94.86;96443.94;5033865;28;20178;-79
2021/10/27 03:33:14;;;;;;;4.80;2.40;;;;;;;4.85;95.02;96453.75;5050307;28;20181;-79
2021/10/27 03:35:39;;;;;;;5.50;2.53;;;;;;;4.91;95.43;96448.25;5049878;28;20184;-79
2021/10/27 03:38:04;;;;;;;3.53;2.27;;;;;;;4.86;94.95;96450.28;5050493;28;20201;-79
2021/10/27 03:40:29;;;;;;;7.80;2.13;;;;;;;4.87;95.14;96451.13;5050353;28;20177;-79
2021/10/27 03:42:55;;;;;;;4.33;2.27;;;;;;;4.81;95.19;96450.56;5050540;28;20178;-79
2021/10/27 03:45:20;;;;;;;5.57;2.10;;;;;;;4.88;94.91;96455.34;5032977;28;20182;-79
2021/10/27 03:47:45;;;;;;;2.63;2.07;;;;;;;4.82;94.93;96452.19;5033457;28;20189;-79
2021/10/27 03:50:14;;;;;;;4.93;2.30;;;;;;;4.86;95.18;96457.16;5033685;28;20189;-79
2021/10/27 03:52:41;;;;;;;4.37;2.30;;;;;;;4.84;95.32;96452.09;5034016;28;20177;-79
2021/10/27 03:55:07;;;;;;;2.50;1.90;;;;;;;4.84;95.32;96449.53;5049767;28;20189;-78
2021/10/27 03:57:32;;;;;;;7.47;2.60;;;;;;;4.82;95.32;96449.63;5033296;28;20189;-79
2021/10/27 03:59:59;;;;;;;3.87;2.00;;;;;;;4.92;95.44;96454.22;5050038;28;20721;-79
2021/10/27 04:02:25;;;;;;;4.17;2.17;;;;;;;4.91;95.67;96450.00;5050253;28;20280;-79
2021/10/27 04:04:50;;;;;;;4.70;1.93;;;;;;;4.91;95.26;96457.72;5033179;28;20269;-79
2021/10/27 04:07:15;;;;;;;2.13;1.97;;;;;;;4.92;95.37;96459.38;5050122;28;20677;-79
2021/10/27 04:09:41;;;;;;;5.37;2.40;;;;;;;4.93;95.50;96461.03;5034172;28;20212;-79
2021/10/27 04:12:06;;;;;;;3.60;2.30;;;;;;;4.95;95.52;96454.06;5048871;28;20193;-79
2021/10/27 04:14:32;;;;;;;4.47;2.03;;;;;;;5.02;95.59;96460.47;5046576;28;20182;-79
2021/10/27 04:16:57;;;;;;;4.87;2.30;;;;;;;5.05;95.31;96461.16;5047537;28;20228;-79
2021/10/27 04:19:22;;;;;;;4.93;2.00;;;;;;;5.15;95.33;96465.75;5049043;28;20198;-79
2021/10/27 04:21:48;;;;;;;6.87;2.40;;;;;;;5.15;95.17;96458.84;5033184;28;20281;-79
2021/10/27 04:24:13;;;;;;;5.03;2.43;;;;;;;5.13;95.25;96458.13;5048825;28;20649;-80
2021/10/27 04:26:38;;;;;;;3.67;2.37;;;;;;;5.22;95.40;96462.72;5052261;28;20209;-79
2021/10/27 04:29:04;;;;;;;9.03;2.37;;;;;;;5.18;95.05;96461.22;5052671;28;20198;-79
2021/10/27 04:31:30;;;;;;;3.30;2.00;;;;;;;5.15;95.21;96458.84;5036303;28;20185;-79
2021/10/27 04:33:55;;;;;;;4.57;2.80;;;;;;;5.13;94.95;96462.44;5037100;28;20185;-79
2021/10/27 04:36:21;;;;;;;3.30;1.97;;;;;;;5.09;94.79;96462.59;5062330;28;20174;-79
2021/10/27 04:38:46;;;;;;;3.83;1.70;;;;;;;5.06;94.77;96469.69;5039237;28;20203;-79
2021/10/27 04:41:11;;;;;;;3.50;2.00;;;;;;;5.09;95.08;96462.59;5036198;28;20182;-79
2021/10/27 04:43:37;;;;;;;4.37;2.00;;;;;;;5.13;95.16;96465.00;5039337;28;20270;-79
2021/10/27 04:46:02;;;;;;;2.77;2.00;;;;;;;5.18;95.38;96465.53;5047705;28;20288;-79
2021/10/27 04:48:28;;;;;;;3.77;2.13;;;;;;;5.21;95.46;96466.22;5047379;28;20198;-79
2021/10/27 04:50:53;;;;;;;5.40;2.27;;;;;;;5.24;95.18;96473.75;5061409;28;20174;-79
2021/10/27 04:53:19;;;;;;;6.63;2.20;;;;;;;5.25;95.00;96472.81;5061644;28;20181;-79
2021/10/27 04:55:46;;;;;;;5.20;2.00;;;;;;;5.24;95.07;96470.34;5035411;28;20170;-79
2021/10/27 04:58:12;;;;;;;3.63;1.80;;;;;;;5.27;95.21;96470.16;5036059;28;20197;-79
2021/10/27 05:00:38;;;;;;;2.87;2.20;;;;;;;5.31;95.37;96469.88;5052722;28;20174;-79
2021/10/27 05:03:03;;;;;;;6.13;2.10;;;;;;;5.36;95.60;96465.25;5052858;28;20228;-79
2021/10/27 05:05:29;;;;;;;4.27;1.87;;;;;;;5.40;95.13;96466.75;5051848;28;20170;-79
2021/10/27 05:07:57;;;;;;;3.43;2.10;;;;;;;5.48;95.03;96468.00;5052694;28;20186;-79
2021/10/27 05:10:22;;;;;;;3.20;2.10;;;;;;;5.50;95.13;96461.03;5052506;28;20738;-81
2021/10/27 05:12:47;;;;;;;5.33;2.27;;;;;;;5.52;94.97;96464.34;5053005;28;20178;-79
2021/10/27 05:15:12;;;;;;;4.30;2.20;;;;;;;5.61;95.48;96471.50;5032662;28;20174;-81
2021/10/27 05:17:38;;;;;;;4.70;2.07;;;;;;;5.72;95.08;96475.97;5060062;28;20196;-80
2021/10/27 05:20:04;;;;;;;3.03;2.20;;;;;;;5.79;94.84;96467.78;5072895;28;20217;-81
2021/10/27 05:22:29;;;;;;;8.37;3.43;;;;;;;5.83;94.87;96466.69;5073811;28;20200;-81
2021/10/27 05:24:54;;;;;;;5.77;2.70;;;;;;;5.95;94.71;96463.34;5047840;28;20232;-82
2021/10/27 05:27:20;;;;;;;5.10;2.07;;;;;;;6.00;94.73;96459.63;5069343;28;20206;-82
2021/10/27 05:29:45;;;;;;;4.33;2.27;;;;;;;6.04;94.59;96461.94;5069778;28;20193;-81
2021/10/27 05:32:10;;;;;;;7.37;2.73;;;;;;;6.06;94.42;96461.84;5069768;28;20642;-80
2021/10/27 05:34:39;;;;;;;3.67;1.87;;;;;;;6.07;94.42;96458.31;5062013;28;20176;-80
2021/10/27 05:37:05;;;;;;;5.00;1.77;;;;;;;6.08;94.11;96465.97;5036240;28;20652;-80
2021/10/27 05:39:30;;;;;;;4.20;2.13;;;;;;;6.13;94.31;96463.09;5036813;28;20202;-80
2021/10/27 05:41:56;;;;;;;6.03;2.97;;;;;;;6.15;94.21;96466.41;5039876;28;20648;-80
2021/10/27 05:44:22;;;;;;;6.53;3.63;;;;;;;6.12;94.54;96459.69;5053119;28;20170;-81
2021/10/27 05:46:50;;;;;;;10.63;2.70;;;;;;;6.19;94.56;96463.53;5036756;28;20193;-81
2021/10/27 05:51:52;;;;;;;5.50;2.17;;;;;;;6.24;94.26;96470.97;5055384;28;20185;-80
2021/10/27 05:57:02;;;;;;;8.63;2.40;;;;;;;6.38;93.57;96470.09;5070386;28;20644;-80
2021/10/27 05:59:27;;;;;;;2.77;1.83;;;;;;;6.38;93.67;96475.25;5054436;28;20202;-81
2021/10/27 06:01:53;;;;;;;3.77;2.00;;;;;;;6.41;93.57;96475.88;5052262;28;20197;-80
2021/10/27 06:04:18;;;;;;;3.40;1.80;;;;;;;6.43;93.50;96478.34;5035514;28;20203;-80
2021/10/27 06:06:44;;;;;;;2.50;2.00;;;;;;;6.46;93.57;96478.16;5052414;28;20237;-80
2021/10/27 06:09:10;;;;;;;7.70;2.10;;;;;;;6.48;93.46;96486.63;5035942;28;20213;-80
2021/10/27 06:11:36;;;;;;;3.87;1.90;;;;;;;6.50;93.49;96480.44;5053474;28;20181;-80
2021/10/27 06:14:02;;;;;;;2.50;1.80;;;;;;;6.55;93.11;96477.56;5072748;28;20538;-80
2021/10/27 06:16:27;;;;;;;4.47;2.00;;;;;;;6.61;93.06;96478.91;5072090;28;20177;-80
2021/10/27 06:18:53;;;;;;;4.90;2.17;;;;;;;6.67;92.94;96488.84;5071870;28;20205;-79
2021/10/27 06:21:18;;;;;;;8.50;3.07;;;;;;;6.70;92.95;96484.28;5070167;28;20193;-80
2021/10/27 06:23:43;;;;;;;5.77;2.40;;;;;;;6.73;92.69;96485.84;5054980;28;20197;-81
2021/10/27 06:26:09;;;;;;;3.37;2.10;;;;;;;6.77;92.60;96488.13;5052055;28;20202;-80
2021/10/27 06:28:56;;;;;;;7.20;2.30;;;;;;;6.84;92.62;96487.72;5036508;28;20628;-80
2021/10/27 06:36:37;;;;;;;5.40;2.47;;;;;;;7.06;91.47;96487.94;5060132;28;20193;-80
2021/10/27 06:39:23;;;;;;;6.23;2.47;;;;;;;7.18;91.11;96491.47;5072175;28;20262;-80
2021/10/27 06:47:19;;;;;;;2.53;1.60;;;;;;;7.26;89.45;96486.59;5042980;28;20213;-81
2021/10/27 06:49:45;;;;;;;3.17;1.90;;;;;;;7.34;88.68;96500.66;5067554;28;20216;-81
2021/10/27 06:52:10;;;;;;;3.23;1.77;;;;;;;7.32;88.44;96493.91;5060467;28;20656;-80
2021/10/27 06:54:36;;;;;;;5.50;2.00;;;;;;;7.34;88.48;96505.00;5044085;28;20260;-80
2021/10/27 06:57:01;;;;;;;2.57;1.50;;;;;;;7.39;88.51;96500.31;5060295;28;20181;-81
2021/10/27 06:59:32;;;;;;;8.03;2.10;;;;;;;7.43;88.25;96506.13;5052589;28;20206;-83
2021/10/27 07:07:19;;;;;;;4.87;1.53;;;;;;;7.52;87.91;96511.50;5059551;28;20575;-82
2021/10/27 07:15:20;;;;;;;2.93;1.53;;;;;;;7.74;86.97;96516.00;5067555;28;20196;-82
2021/10/27 07:17:51;;;;;;;2.87;1.50;;;;;;;7.82;86.84;96518.88;5041261;28;20640;-82
2021/10/27 07:20:16;;;;;;;3.33;1.60;;;;;;;7.92;86.41;96524.22;5051739;28;20182;-82
2021/10/27 07:22:43;;;;;;;3.10;1.33;;;;;;;8.02;86.43;96527.81;5061977;28;20196;-81
2021/10/27 07:25:09;;;;;;;6.00;2.13;;;;;;;8.07;86.19;96523.16;5047837;28;20671;-82
2021/10/27 07:27:34;;;;;;;2.87;1.70;;;;;;;8.12;85.76;96528.00;5050365;28;20220;-81
2021/10/27 07:30:00;;;;;;;4.17;1.40;;;;;;;8.20;85.66;96529.09;5064824;28;20202;-81
2021/10/27 07:32:27;;;;;;;2.90;2.00;;;;;;;8.28;85.53;96525.97;5063834;28;20557;-83
2021/10/27 07:43:04;;;;;;;5.00;1.63;;;;;;;8.63;84.33;96527.81;5059118;28;20189;-80
2021/10/27 07:45:31;;;;;;;1.87;1.40;;;;;;;8.59;84.24;96532.41;5045315;28;20196;-80
2021/10/27 07:47:57;;;;;;;3.17;1.70;;;;;;;8.72;84.14;96535.72;5060479;28;20193;-80
2021/10/27 07:50:27;;;;;;;4.80;1.63;;;;;;;8.69;83.97;96542.91;5055821;28;20246;-78
2021/10/27 07:52:53;;;;;;;3.53;1.40;;;;;;;8.75;83.95;96540.72;5048032;28;20554;-79
2021/10/27 07:55:18;;;;;;;1.90;1.50;;;;;;;8.86;83.45;96528.72;5057564;28;20698;-79
2021/10/27 07:57:44;;;;;;;1.83;1.40;;;;;;;8.93;83.17;96540.31;5058037;28;20185;-81
2021/10/27 08:00:11;;;;;;;3.73;1.30;;;;;;;8.99;82.92;96532.06;5051776;28;20182;-82
2021/10/27 08:02:36;;;;;;;2.80;1.30;;;;;;;9.02;82.40;96542.22;5054557;28;20570;-80
2021/10/27 08:05:02;;;;;;;1.37;1.10;;;;;;;9.13;82.33;96534.47;5043205;28;20189;-80
2021/10/27 08:07:28;;;;;;;2.20;1.00;;;;;;;9.19;82.63;96528.81;5068523;28;20288;-80
2021/10/27 08:09:53;;;;;;;2.30;1.00;;;;;;;9.19;82.60;96534.00;5072006;28;20209;-80
2021/10/27 08:12:18;;;;;;;1.47;1.30;;;;;;;9.30;82.35;96539.19;5048002;28;20189;-80
2021/10/27 08:14:44;;;;;;;1.50;1.30;;;;;;;9.34;82.19;96543.19;5052908;28;20186;-79
2021/10/27 08:17:09;;;;;;;1.07;1.03;;;;;;;9.41;82.48;96542.75;5065008;28;20204;-80
2021/10/27 08:19:34;;;;;;;1.50;1.00;;;;;;;9.59;81.94;96551.72;5053721;28;20205;-81
2021/10/27 08:22:03;;;;;;;1.73;0.97;;;;;;;9.63;81.08;96553.16;5070695;28;20601;-82
2021/10/27 08:24:28;;;;;;;1.83;1.17;;;;;;;9.74;80.78;96545.38;5052130;28;20224;-80
2021/10/27 08:27:03;;;;;;;1.23;0.80;;;;;;;9.75;80.77;96554.78;5056488;28;20729;-81
2021/10/27 08:29:30;;;;;;;2.70;1.17;;;;;;;9.80;80.15;96549.25;5067581;28;20211;-81
2021/10/27 08:32:04;;;;;;;1.87;1.00;;;;;;;9.78;80.61;96549.38;5054143;28;20244;-79
2021/10/27 08:34:39;;;;;;;1.83;1.37;;;;;;;9.84;80.00;96546.31;5055417;28;20178;-80
2021/10/27 08:37:05;;;;;;;2.63;1.40;;;;;;;9.79;80.00;96545.81;5063737;28;20699;-81
2021/10/27 08:39:30;;;;;;;2.47;1.37;;;;;;;9.85;79.91;96547.94;5044970;28;20209;-81
2021/10/27 08:41:55;;;;;;;2.87;1.57;;;;;;;9.86;79.97;96557.38;5071264;28;20705;-80
2021/10/27 08:44:21;;;;;;;3.03;1.30;;;;;;;10.07;78.61;96546.25;5055926;28;20700;-81
2021/10/27 08:46:46;;;;;;;2.00;1.40;;;;;;;10.09;79.01;96549.59;5057263;28;20216;-80
2021/10/27 08:49:14;;;;;;;2.17;1.60;;;;;;;10.14;79.23;96547.44;5073188;28;20280;-79
2021/10/27 08:51:40;;;;;;;2.17;1.47;;;;;;;10.21;78.41;96552.03;5050605;28;20552;-81
2021/10/27 08:54:07;;;;;;;3.07;1.80;;;;;;;10.24;78.55;96545.81;5059591;28;20212;-81
2021/10/27 08:56:35;;;;;;;5.93;1.87;;;;;;;10.35;77.85;96550.16;5070096;28;20186;-81
2021/10/27 08:59:30;;;;;;;2.93;1.80;;;;;;;10.37;77.98;96543.91;5064783;28;20200;-82
2021/10/27 09:04:54;;;;;;;5.67;1.93;;;;;;;10.45;77.32;96535.50;5063646;28;20185;-81
2021/10/27 09:07:30;;;;;;;2.50;1.97;;;;;;;10.44;76.97;96541.66;5069945;28;20217;-80
2021/10/27 09:10:08;;;;;;;3.87;1.80;;;;;;;10.37;76.56;96546.50;5078516;28;20224;-81
2021/10/27 10:06:05;;;;;;;4.77;1.80;;;;;;;11.16;73.66;96504.59;5081206;28;20211;-82
2021/10/27 10:08:31;;;;;;;4.83;1.70;;;;;;;11.11;73.16;96507.56;5057790;28;20197;-81
2021/10/27 10:10:56;;;;;;;2.20;1.60;;;;;;;11.16;72.28;96507.19;5045875;28;20178;-81
2021/10/27 10:13:22;;;;;;;2.60;1.63;;;;;;;11.12;72.77;96509.19;5044015;28;20189;-81
2021/10/27 10:15:47;;;;;;;1.97;1.60;;;;;;;11.23;72.64;96509.16;5050965;28;20549;-80
2021/10/27 10:18:13;;;;;;;3.73;1.63;;;;;;;11.07;72.90;96503.56;5034681;28;20205;-81
2021/10/27 10:20:40;;;;;;;4.17;1.97;;;;;;;11.11;73.50;96494.56;5039228;28;20181;-81
2021/10/27 10:23:23;;;;;;;3.83;1.80;;;;;;;11.21;72.44;96494.63;5061452;28;20193;-81
2021/10/27 10:25:56;;;;;;;4.00;1.97;;;;;;;11.47;71.60;96502.81;5032087;28;20205;-81
2021/10/27 10:28:26;;;;;;;3.50;1.57;;;;;;;11.53;71.17;96497.94;5051597;28;20265;-81
2021/10/27 10:30:56;;;;;;;3.73;2.20;;;;;;;11.67;70.90;96493.34;5048034;28;20185;-81
2021/10/27 10:33:44;;;;;;;2.70;1.80;;;;;;;11.63;71.75;96488.38;5033534;28;20182;-80
2021/10/27 10:36:32;;;;;;;2.90;1.43;;;;;;;11.66;70.45;96491.69;5055327;28;20178;-81
2021/10/27 10:56:22;;;;;;;1.97;1.57;;;;;;;12.25;67.59;96477.91;5048457;28;20232;-80
2021/10/27 11:11:39;;;;;;;2.97;1.37;;;;;;;12.31;68.19;96470.38;5041747;28;20986;-80
2021/10/27 11:40:07;;;;;;;2.50;1.40;;;;;;;12.85;66.52;96440.31;5062972;28;20216;-81
2021/10/27 11:42:44;;;;;;;3.40;1.47;;;;;;;13.04;66.03;96444.66;5054525;28;20273;-81
2021/10/27 11:45:13;;;;;;;2.03;1.40;;;;;;;13.08;65.63;96438.22;5050514;28;20269;-81
2021/10/27 11:47:46;;;;;;;3.10;1.63;;;;;;;13.00;64.88;96432.91;5056659;28;20217;-81
2021/10/27 11:50:14;;;;;;;2.27;1.70;;;;;;;13.00;64.44;96432.91;5072026;28;20261;-79
2021/10/27 11:52:42;;;;;;;1.50;1.20;;;;;;;13.01;64.77;96429.31;5044708;28;20178;-82
2021/10/27 11:55:13;;;;;;;2.80;1.47;;;;;;;12.99;64.89;96424.25;5050561;28;20192;-82
2021/10/27 11:57:39;;;;;;;3.17;1.70;;;;;;;12.95;65.08;96424.66;5064319;28;20177;-83
2021/10/27 12:00:07;;;;;;;2.33;1.93;;;;;;;12.96;64.59;96418.47;5047060;28;20622;-82
2021/10/27 12:05:32;;;;;;;2.80;1.50;;;;;;;13.28;62.31;96411.16;5071570;28;20558;-81
2021/10/27 12:19:26;;;;;;;3.17;1.67;;;;;;;13.13;63.80;96394.28;5057793;28;20225;-80
2021/10/27 12:21:56;;;;;;;6.50;2.20;;;;;;;13.04;64.07;96379.50;5039285;28;20185;-81
2021/10/27 12:24:25;;;;;;;1.77;1.60;;;;;;;13.32;63.14;96380.38;5068509;28;20228;-82
2021/10/27 12:27:00;;;;;;;2.63;1.70;;;;;;;13.23;63.62;96376.00;5041432;28;20576;-81
2021/10/27 12:29:27;;;;;;;2.93;1.43;;;;;;;13.40;63.19;96366.59;5062681;28;21225;-81
2021/10/27 12:32:07;;;;;;;1.40;1.30;;;;;;;13.27;63.21;96366.94;5068400;28;20266;-81
2021/10/27 12:34:52;;;;;;;2.97;1.60;;;;;;;13.04;62.42;96372.47;5076388;28;20608;-81
2021/10/27 12:40:43;;;;;;;1.83;1.20;;;;;;;12.95;61.98;96357.69;5046438;28;20189;-81
2021/10/27 12:43:11;;;;;;;1.80;1.17;;;;;;;13.19;61.89;96357.25;5042854;28;20184;-80
2021/10/27 12:45:51;;;;;;;2.20;1.13;;;;;;;13.16;61.55;96357.47;5043545;28;20218;-81
2021/10/27 12:48:18;;;;;;;3.13;2.03;;;;;;;13.19;61.25;96359.00;5052977;28;20210;-81
2021/10/27 12:51:02;;;;;;;1.87;1.67;;;;;;;13.16;62.20;96354.03;5038090;28;20189;-82
2021/10/27 12:53:42;;;;;;;1.70;1.13;;;;;;;13.15;61.92;96348.00;5029024;28;20677;-81
2021/10/27 12:56:17;;;;;;;2.40;1.17;;;;;;;13.26;61.51;96344.44;5052941;28;20186;-81
2021/10/27 12:58:50;;;;;;;2.70;1.20;;;;;;;13.20;61.65;96351.06;5021797;28;20275;-82
2021/10/27 13:06:44;;;;;;;7.13;4.30;;;;;;;13.28;60.38;96351.16;5050451;28;20205;-80
2021/10/27 13:09:19;;;;;;;3.03;1.30;;;;;;;13.36;59.26;96345.22;5031386;28;20201;-80
2021/10/27 13:17:35;;;;;;;1.23;1.00;;;;;;;13.38;57.77;96347.69;5065475;28;20268;-82
2021/10/27 13:29:32;;;;;;;10.07;5.57;;;;;;;13.24;60.08;96338.53;5069439;28;20198;-81
2021/10/27 13:31:12;;;;;;;5.23;2.90;;;;;;;13.17;58.75;96343.50;5074603;28;20188;-82
2021/10/27 13:33:37;;;;;;;2.83;1.30;;;;;;;13.08;58.08;96341.75;5049889;28;20185;-81
2021/10/27 13:36:03;;;;;;;9.10;4.17;;;;;;;13.05;57.67;96336.81;5057758;28;20196;-81
2021/10/27 13:38:34;;;;;;;4.60;2.00;;;;;;;13.12;57.55;96340.47;5057638;28;20205;-79
2021/10/27 13:41:01;;;;;;;4.53;2.67;;;;;;;13.15;57.43;96345.41;5062496;28;20554;-81
2021/10/27 13:43:31;;;;;;;3.60;2.07;;;;;;;13.09;58.13;96335.56;5066706;28;20185;-80
2021/10/27 13:46:19;;;;;;;3.00;1.90;;;;;;;13.22;58.18;96336.06;5077889;28;20802;-80
2021/10/27 13:49:08;;;;;;;3.57;2.03;;;;;;;13.23;58.27;96335.09;5077240;28;20334;-80
2021/10/27 14:08:06;;;;;;;2.97;1.33;;;;;;;13.25;56.17;96333.19;5073568;28;20477;-80
2021/10/27 14:10:54;;;;;;;2.43;1.37;;;;;;;13.27;56.67;96326.03;5061855;28;20213;-80
2021/10/27 14:13:32;;;;;;;4.83;2.43;;;;;;;13.35;55.75;96321.88;5076015;28;20187;-80
2021/10/27 14:40:53;;;;;;;2.50;1.20;;;;;;;13.03;56.67;96313.47;5062122;28;20188;-81
2021/10/27 15:21:25;;;;;;;3.97;1.50;;;;;;;12.24;58.85;96273.97;5061607;28;20603;-83
2021/10/27 15:35:05;;;;;;;1.80;1.50;;;;;;;11.86;61.88;96269.63;5010622;28;20335;-81
2021/10/27 15:40:33;;;;;;;4.37;3.10;;;;;;;11.72;64.98;96257.00;5015572;28;20179;-80
2021/10/27 15:50:32;;;;;;;5.97;4.30;;;;;;;11.43;66.91;96252.59;5016025;28;20229;-80
2021/10/27 15:51:13;;;;;;;3.50;3.07;;;;;;;11.23;67.66;96250.94;5017631;28;20248;-80
2021/10/27 15:53:40;;;;;;;4.83;3.07;;;;;;;11.09;68.50;96252.13;5013877;28;20252;-80
2021/10/27 15:56:05;;;;;;;7.37;3.53;;;;;;;11.19;68.37;96244.34;5015062;28;20178;-80
2021/10/27 15:58:30;;;;;;;5.10;3.70;;;;;;;10.99;68.54;96246.91;5015236;28;20214;-80
2021/10/27 16:00:56;;;;;;;6.47;3.43;;;;;;;10.84;69.06;96242.22;5014901;28;20190;-79
2021/10/27 16:03:21;;;;;;;4.47;3.40;;;;;;;10.70;69.61;96240.81;5014098;28;20221;-79
2021/10/27 16:05:48;;;;;;;3.63;3.13;;;;;;;10.54;70.43;96243.91;5013978;28;20213;-79
2021/10/27 16:08:15;;;;;;;6.70;3.40;;;;;;;10.46;70.67;96241.13;5013883;28;20686;-80
2021/10/27 16:10:42;;;;;;;7.57;3.80;;;;;;;10.30;70.80;96236.38;5027188;28;20198;-80
2021/10/27 16:13:07;;;;;;;7.23;3.20;;;;;;;10.23;70.91;96234.44;5036239;28;20181;-80
2021/10/27 16:15:41;;;;;;;6.50;3.40;;;;;;;10.14;70.94;96241.19;5035190;28;20622;-80
2021/10/27 16:18:11;;;;;;;5.10;2.90;;;;;;;10.09;70.68;96236.41;5037074;28;20206;-80
2021/10/27 16:20:37;;;;;;;6.17;3.53;;;;;;;10.06;70.56;96241.81;5056759;28;20178;-80
2021/10/27 16:23:04;;;;;;;4.13;2.80;;;;;;;9.92;70.92;96250.75;5056076;28;20197;-80
2021/10/27 16:25:29;;;;;;;4.80;3.10;;;;;;;9.83;71.27;96241.13;5038989;28;20535;-80